Terminal Aerodrome Forecast
Issued by NWS

Home | Current Version | Previous Version | Text Only | Print | Product List | Glossary On
Versions: 1 2 3 4 5 6 7 8 9 10 11 12 13 14
009
FTUS45 KRIW 151134
TAFCOD
TAF
KCOD 151134Z 1512/1612 27009G17KT P6SM SCT200 WS020/26035KT
     FM151300 26013G21KT P6SM SCT200 WS010/26040KT
     FM160400 21007KT P6SM BKN150
     FM160900 01009KT P6SM VCSH OVC025
      AMD LTD TO CLD VIS AND WIND=

USA.gov is the U.S. government's official web portal to all federal, state and local government web resources and services.